Time;durP1;ratioP1;P1;durP2;ratioP2;P2;SDS_P1;SDS_P2;PMS_P1;PMS_P2;Temp;Humidity;BMP_temperature;BMP_pressure;BME280_temperature;BME280_humidity;BME280_pressure;Samples;Min_cycle;Max_cycle;Signal;HPM_P1;HPM_P2
2022/05/20 00:01:36;;;;;;;1.98;1.73;;;;;;;13.31;49.21;100331.91;5051483;28;20029;-87
2022/05/20 00:04:02;;;;;;;2.03;1.80;;;;;;;14.98;49.20;100594.09;5051848;28;20021;-87
2022/05/20 00:06:27;;;;;;;2.67;1.95;;;;;;;14.97;49.20;100590.59;5037696;28;20402;-88
2022/05/20 00:08:54;;;;;;;3.72;1.90;;;;;;;14.18;49.01;100467.84;5032430;28;20037;-89
2022/05/20 00:11:20;;;;;;;2.72;2.05;;;;;;;14.59;49.14;100548.03;5030870;28;20029;-88
2022/05/20 00:13:46;;;;;;;2.17;1.80;;;;;;;14.89;49.30;100588.84;5032169;28;20031;-89
2022/05/20 00:16:12;;;;;;;3.05;1.90;;;;;;;14.20;49.19;100536.72;5031960;28;20156;-89
2022/05/20 00:18:38;;;;;;;3.45;1.88;;;;;;;14.08;49.43;100469.06;5031839;28;20053;-89
2022/05/20 00:21:04;;;;;;;2.25;1.73;;;;;;;14.06;49.38;100482.50;5031863;28;20025;-89
2022/05/20 00:23:29;;;;;;;1.77;1.67;;;;;;;14.74;49.68;100587.13;5030334;28;20029;-88
2022/05/20 00:25:55;;;;;;;4.43;1.90;;;;;;;14.21;49.90;100528.56;5030057;28;20033;-89
2022/05/20 00:28:22;;;;;;;3.60;2.00;;;;;;;14.56;49.98;100598.91;5031452;28;20541;-89
2022/05/20 00:31:00;;;;;;;1.85;1.65;;;;;;;14.07;50.31;100528.47;5031269;28;20030;-89
2022/05/20 00:33:27;;;;;;;2.85;2.05;;;;;;;14.43;50.31;100588.03;5031585;28;20111;-89
2022/05/20 00:35:53;;;;;;;3.80;2.00;;;;;;;13.77;50.12;100524.84;5031766;28;20497;-89
2022/05/20 00:38:19;;;;;;;3.38;1.77;;;;;;;13.70;50.40;100482.25;5030119;28;20061;-89
2022/05/20 00:40:46;;;;;;;3.47;2.00;;;;;;;14.26;50.42;100583.81;5031415;28;20512;-89
2022/05/20 00:43:29;;;;;;;3.10;2.00;;;;;;;14.53;50.10;100604.56;5031407;28;20033;-88
2022/05/20 00:46:10;;;;;;;5.55;2.10;;;;;;;14.20;50.26;100540.19;5030093;28;20032;-89
2022/05/20 00:48:36;;;;;;;1.80;1.60;;;;;;;14.23;49.73;100541.66;5034395;28;20029;-89
2022/05/20 00:51:11;;;;;;;5.35;2.00;;;;;;;14.62;49.91;100602.69;5035494;28;20027;-89
2022/05/20 00:54:07;;;;;;;2.20;1.70;;;;;;;13.57;50.01;100431.59;5034148;28;20046;-89
2022/05/20 00:57:15;;;;;;;1.77;1.67;;;;;;;14.58;50.04;100593.41;5029566;28;20036;-89
2022/05/20 00:59:46;;;;;;;6.63;1.92;;;;;;;14.11;49.81;100527.94;4977517;28;20117;-89
2022/05/20 01:02:17;;;;;;;2.40;1.65;;;;;;;14.32;49.75;100568.00;4993793;28;20089;-89
2022/05/20 01:04:43;;;;;;;2.00;1.90;;;;;;;13.67;50.01;100493.22;5023884;28;20033;-89
2022/05/20 01:07:09;;;;;;;2.60;2.00;;;;;;;13.32;49.91;100442.31;5033719;28;20057;-89
2022/05/20 01:09:36;;;;;;;2.17;1.92;;;;;;;14.38;50.06;100608.16;5033570;28;20029;-89
2022/05/20 01:12:02;;;;;;;3.00;2.38;;;;;;;13.91;50.24;100538.19;5033674;28;20021;-89
2022/05/20 01:14:28;;;;;;;2.08;1.98;;;;;;;13.63;50.01;100476.00;5033597;28;20487;-89
2022/05/20 01:16:54;;;;;;;4.10;2.33;;;;;;;13.95;50.29;100550.13;5033506;28;20038;-89
2022/05/20 01:19:33;;;;;;;3.70;2.20;;;;;;;14.10;50.20;100555.50;5034359;28;20030;-88
2022/05/20 01:21:58;;;;;;;2.28;2.03;;;;;;;13.68;49.99;100540.00;5033394;28;20414;-89
2022/05/20 01:24:24;;;;;;;6.15;2.42;;;;;;;13.91;50.18;100535.53;5049787;28;20021;-89
2022/05/20 01:26:49;;;;;;;6.15;2.45;;;;;;;13.48;50.44;100517.53;5033448;28;20482;-89
2022/05/20 01:29:14;;;;;;;5.32;2.40;;;;;;;13.93;50.15;100567.22;5033451;28;20036;-89
2022/05/20 01:31:40;;;;;;;5.60;2.58;;;;;;;13.43;50.25;100477.44;5034623;28;20052;-89
2022/05/20 01:34:05;;;;;;;3.65;2.38;;;;;;;14.04;50.52;100621.78;5034448;28;20047;-89
2022/05/20 01:36:31;;;;;;;3.20;2.55;;;;;;;13.50;50.54;100510.22;5034332;28;20036;-89
2022/05/20 01:38:59;;;;;;;3.20;2.38;;;;;;;13.84;50.62;100577.06;5033337;28;20104;-89
2022/05/20 01:41:45;;;;;;;3.47;2.10;;;;;;;13.86;51.06;100574.25;5034379;28;20040;-88
2022/05/20 01:44:17;;;;;;;4.22;1.95;;;;;;;14.05;50.82;100613.63;5033303;28;20025;-89
2022/05/20 01:46:45;;;;;;;;;;;;;;;13.86;51.46;100611.41;5034945;28;20048;-89
2022/05/20 01:49:36;;;;;;;2.97;2.05;;;;;;;13.57;51.13;100558.94;5034101;28;19909;-89
2022/05/20 01:52:39;;;;;;;3.05;2.10;;;;;;;13.97;50.97;100609.19;5034322;28;20077;-90
2022/05/20 01:55:16;;;;;;;3.95;2.33;;;;;;;13.96;51.37;100612.00;5032957;28;20060;-89
2022/05/20 01:57:53;;;;;;;3.42;2.10;;;;;;;13.40;50.88;100518.41;5033870;28;20029;-89
2022/05/20 02:00:23;;;;;;;2.95;2.00;;;;;;;13.96;50.79;100609.38;5034075;28;20026;-90
2022/05/20 02:09:38;;;;;;;2.70;1.87;;;;;;;13.66;50.81;100572.00;5034718;28;20045;-90
2022/05/20 02:12:04;;;;;;;2.28;1.90;;;;;;;13.03;50.86;100468.59;5034095;28;20307;-89
2022/05/20 02:15:01;;;;;;;2.00;1.80;;;;;;;13.73;51.18;100580.09;5032494;28;20028;-89
2022/05/20 02:17:33;;;;;;;3.65;2.03;;;;;;;13.91;50.89;100607.22;5033704;28;20525;-89
2022/05/20 02:20:48;;;;;;;2.88;2.05;;;;;;;13.85;51.28;100605.25;5034004;28;20029;-89
2022/05/20 02:23:31;;;;;;;6.55;2.30;;;;;;;13.84;51.36;100616.88;5029302;28;20576;-89
2022/05/20 02:26:01;;;;;;;3.25;2.08;;;;;;;13.83;50.96;100611.75;5033323;28;20025;-89
2022/05/20 02:38:32;;;;;;;4.88;2.60;;;;;;;13.61;50.93;100616.81;5034041;28;20040;-89
2022/05/20 02:40:58;;;;;;;3.15;2.80;;;;;;;13.00;51.09;100517.50;5032325;28;20422;-89
2022/05/20 02:43:24;;;;;;;3.92;2.70;;;;;;;13.61;51.42;100610.69;5032337;28;20057;-89
2022/05/20 02:45:51;;;;;;;4.85;3.40;;;;;;;13.29;51.15;100569.13;5033452;28;20025;-90
2022/05/20 02:48:19;;;;;;;4.38;3.60;;;;;;;13.60;51.10;100620.47;5033305;28;20036;-90
2022/05/20 02:50:44;;;;;;;5.57;2.85;;;;;;;13.25;51.47;100579.25;5031922;28;20021;-90
2022/05/20 02:53:10;;;;;;;4.60;2.92;;;;;;;13.56;51.31;100620.97;5031705;28;20144;-89
2022/05/20 02:55:37;;;;;;;6.00;3.10;;;;;;;13.54;51.53;100626.47;5031987;28;20187;-89
2022/05/20 02:58:04;;;;;;;3.90;2.85;;;;;;;13.55;51.43;100625.47;5033030;28;20029;-89
2022/05/20 03:05:58;;;;;;;3.85;2.45;;;;;;;13.01;51.35;100555.44;5033143;28;20041;-89
2022/05/20 03:08:24;;;;;;;3.92;3.25;;;;;;;13.41;51.57;100623.50;5031566;28;20025;-90
2022/05/20 03:10:50;;;;;;;3.33;2.70;;;;;;;13.12;51.61;100573.63;5031752;28;20525;-90
2022/05/20 03:13:16;;;;;;;3.88;3.35;;;;;;;12.74;51.46;100511.59;5032814;28;20040;-90
2022/05/20 03:15:42;;;;;;;9.95;4.00;;;;;;;12.97;51.52;100554.94;5033081;28;20044;-89
2022/05/20 03:18:09;;;;;;;6.35;4.30;;;;;;;13.46;51.16;100633.63;5032874;28;20026;-89
2022/05/20 03:20:34;;;;;;;6.10;4.25;;;;;;;12.61;51.65;100500.66;5031658;28;20565;-89
2022/05/20 03:23:00;;;;;;;7.03;4.38;;;;;;;13.44;51.89;100638.25;5031332;28;20031;-89
2022/05/20 03:25:26;;;;;;;6.68;4.25;;;;;;;13.19;51.24;100579.94;5031257;28;20021;-89
2022/05/20 03:27:51;;;;;;;5.88;3.95;;;;;;;13.24;51.34;100593.53;5031254;28;20041;-90
2022/05/20 03:30:17;;;;;;;8.10;4.28;;;;;;;13.31;51.38;100593.66;5032420;28;20049;-89
2022/05/20 03:32:43;;;;;;;5.70;4.13;;;;;;;13.18;51.34;100566.84;5031226;28;20091;-90
2022/05/20 03:35:09;;;;;;;7.57;4.35;;;;;;;13.30;51.11;100587.53;5032462;28;20022;-90
2022/05/20 03:37:35;;;;;;;6.45;4.28;;;;;;;12.76;51.24;100496.34;5032625;28;20498;-89
2022/05/20 03:40:01;;;;;;;10.63;4.63;;;;;;;13.60;51.17;100635.56;5031348;28;20021;-89
2022/05/20 03:42:26;;;;;;;7.25;4.10;;;;;;;13.58;51.48;100633.09;5031568;28;20442;-89
2022/05/20 03:44:52;;;;;;;9.18;4.72;;;;;;;12.96;51.23;100542.69;5031430;28;20020;-89
2022/05/20 03:47:18;;;;;;;5.38;3.97;;;;;;;11.91;51.53;100375.94;5031369;28;20574;-89
2022/05/20 03:49:44;;;;;;;6.68;4.10;;;;;;;13.32;51.50;100604.09;5032389;28;20127;-90
2022/05/20 03:52:10;;;;;;;4.57;3.70;;;;;;;13.03;51.69;100582.59;5047528;28;20080;-90
2022/05/20 03:54:35;;;;;;;5.30;3.58;;;;;;;13.52;51.70;100630.28;5031086;28;20483;-89
2022/05/20 03:57:03;;;;;;;6.22;3.72;;;;;;;13.43;51.17;100613.56;5031121;28;20029;-89
2022/05/20 03:59:29;;;;;;;6.05;3.30;;;;;;;12.82;51.23;100527.47;5031962;28;20116;-89
2022/05/20 04:01:58;;;;;;;5.30;2.90;;;;;;;13.55;51.80;100643.22;5031060;28;20018;-89
2022/05/20 04:04:36;;;;;;;7.05;2.92;;;;;;;13.60;51.78;100641.69;5032208;28;20044;-89
2022/05/20 04:07:17;;;;;;;3.25;2.30;;;;;;;13.60;51.89;100641.69;5032114;28;20060;-90
2022/05/20 04:09:42;;;;;;;6.43;2.75;;;;;;;12.93;51.41;100540.38;5031952;28;20045;-89
2022/05/20 04:12:16;;;;;;;5.85;2.80;;;;;;;13.14;51.61;100545.13;5031545;28;20029;-89
2022/05/20 04:14:41;;;;;;;3.80;2.70;;;;;;;13.35;51.34;100585.19;5031552;28;20413;-89
2022/05/20 04:17:08;;;;;;;6.30;2.88;;;;;;;12.85;51.09;100473.31;5030363;28;20022;-90
2022/05/20 04:19:34;;;;;;;6.25;2.92;;;;;;;13.80;51.38;100636.81;5030863;28;20036;-89
2022/05/20 04:22:09;;;;;;;4.07;3.00;;;;;;;13.56;51.25;100597.09;5032306;28;20010;-89
2022/05/20 04:24:35;;;;;;;11.48;3.10;;;;;;;13.96;51.14;100659.81;5035879;28;20021;-89
2022/05/20 04:27:01;;;;;;;4.72;3.00;;;;;;;13.47;51.34;100567.13;5036075;28;20104;-90
2022/05/20 04:29:27;;;;;;;4.07;2.90;;;;;;;14.02;51.36;100639.69;5034239;28;20049;-89
2022/05/20 04:31:53;;;;;;;5.78;3.72;;;;;;;13.79;51.26;100603.31;5034217;28;20029;-89
2022/05/20 04:34:19;;;;;;;4.97;3.10;;;;;;;14.04;51.29;100656.28;5035456;28;20029;-89
2022/05/20 04:36:45;;;;;;;6.45;2.78;;;;;;;13.91;51.11;100596.59;5034447;28;20087;-89
2022/05/20 04:39:11;;;;;;;4.57;3.10;;;;;;;14.29;51.40;100647.22;5034158;28;20057;-89
2022/05/20 04:47:08;;;;;;;5.47;2.92;;;;;;;14.60;50.60;100645.38;5035485;28;20036;-89
2022/05/20 04:49:38;;;;;;;9.15;2.85;;;;;;;14.55;50.61;100629.13;5034295;28;20021;-89
2022/05/20 04:52:04;;;;;;;8.18;3.67;;;;;;;14.44;50.19;100578.25;5035541;28;20124;-89
2022/05/20 04:57:33;;;;;;;4.57;2.53;;;;;;;15.04;50.23;100655.38;5035951;28;20056;-89
2022/05/20 05:00:17;;;;;;;6.85;2.55;;;;;;;15.15;49.80;100644.28;5035591;28;20076;-89
2022/05/20 05:02:44;;;;;;;7.05;3.28;;;;;;;15.27;49.79;100640.19;5034660;28;20108;-89
2022/05/20 05:05:11;;;;;;;7.30;3.20;;;;;;;15.35;49.74;100644.59;5034324;28;20049;-89
2022/05/20 05:07:39;;;;;;;5.80;2.95;;;;;;;15.43;49.49;100646.34;5034400;28;20032;-88
2022/05/20 05:10:05;;;;;;;6.88;3.30;;;;;;;15.00;49.37;100563.66;5035487;28;20406;-89
2022/05/20 05:12:30;;;;;;;6.57;2.92;;;;;;;14.89;49.62;100532.19;5034602;28;20021;-88
2022/05/20 05:14:56;;;;;;;4.00;2.88;;;;;;;15.60;49.47;100658.50;5035392;28;20468;-88
2022/05/20 05:20:16;;;;;;;6.68;2.33;;;;;;;15.76;49.25;100630.88;5035623;28;20575;-88
2022/05/20 05:22:42;;;;;;;5.88;2.63;;;;;;;15.84;49.25;100634.28;5034847;28;20025;-88
2022/05/20 05:25:10;;;;;;;4.18;2.90;;;;;;;15.63;49.66;100596.94;5034200;28;20409;-88
2022/05/20 05:27:35;;;;;;;3.13;2.58;;;;;;;15.44;49.18;100587.59;5033963;28;20025;-89
2022/05/20 05:30:01;;;;;;;4.50;2.85;;;;;;;15.44;49.23;100549.53;5034308;28;20032;-88
2022/05/20 05:32:26;;;;;;;6.50;3.63;;;;;;;15.41;49.31;100533.91;5050987;28;20040;-89
2022/05/20 05:34:52;;;;;;;5.60;3.42;;;;;;;16.12;49.04;100618.41;5040475;28;20021;-88
2022/05/20 05:37:17;;;;;;;10.88;5.93;;;;;;;15.71;49.50;100559.56;5058237;28;20124;-88
2022/05/20 05:39:43;;;;;;;4.82;3.10;;;;;;;16.13;49.17;100616.56;5058759;28;20013;-88
2022/05/20 05:42:08;;;;;;;7.38;3.40;;;;;;;14.82;49.02;100379.69;5056509;28;20017;-88
2022/05/20 05:44:34;;;;;;;4.97;3.20;;;;;;;16.42;48.95;100629.00;5045640;28;20021;-89
2022/05/20 05:46:59;;;;;;;6.60;2.58;;;;;;;15.94;48.79;100530.09;5048524;28;20029;-89
2022/05/20 05:49:25;;;;;;;5.03;2.90;;;;;;;16.71;48.49;100647.59;5057688;28;20105;-89
2022/05/20 05:51:50;;;;;;;5.25;3.22;;;;;;;16.19;48.58;100539.38;5037587;28;20514;-88
2022/05/20 05:54:16;;;;;;;4.20;2.50;;;;;;;16.58;48.34;100595.94;5050002;28;20509;-89
2022/05/20 05:56:42;;;;;;;5.18;2.38;;;;;;;16.97;47.26;100647.00;5053469;28;20024;-88
2022/05/20 05:59:08;;;;;;;2.42;1.90;;;;;;;17.04;46.42;100647.88;5042371;28;20024;-89
2022/05/20 06:01:33;;;;;;;4.45;2.03;;;;;;;17.15;45.71;100650.03;5053919;28;20059;-88
2022/05/20 06:03:59;;;;;;;5.85;2.47;;;;;;;16.86;45.61;100607.50;5038574;28;20075;-88
2022/05/20 06:06:24;;;;;;;4.65;2.55;;;;;;;16.86;46.17;100604.84;5032826;28;20055;-88
2022/05/20 06:08:50;;;;;;;5.32;2.05;;;;;;;17.21;45.79;100639.59;5051907;28;20024;-88
2022/05/20 06:11:15;;;;;;;3.47;2.10;;;;;;;17.10;45.26;100608.94;5054074;28;20595;-87
2022/05/20 06:13:41;;;;;;;3.20;1.98;;;;;;;17.12;44.97;100618.41;5041376;28;20026;-88
2022/05/20 06:16:07;;;;;;;4.22;2.10;;;;;;;16.83;44.69;100565.22;5048014;28;20025;-88
2022/05/20 06:18:33;;;;;;;4.70;2.30;;;;;;;17.06;44.47;100580.97;5051310;28;20024;-88
2022/05/20 06:20:58;;;;;;;6.35;2.15;;;;;;;17.66;44.58;100652.44;5062931;28;20409;-87
2022/05/20 06:23:24;;;;;;;2.83;2.28;;;;;;;17.79;44.42;100654.38;5081720;28;20032;-86
2022/05/20 06:25:51;;;;;;;2.83;1.67;;;;;;;17.80;44.25;100656.00;5064619;28;20024;-85
2022/05/20 06:28:18;;;;;;;5.65;2.40;;;;;;;17.63;44.26;100603.91;5073668;28;20059;-86
2022/05/20 06:30:44;;;;;;;4.13;2.30;;;;;;;17.73;43.82;100607.91;5061308;28;20083;-88
2022/05/20 06:33:09;;;;;;;3.90;1.83;;;;;;;17.53;43.78;100553.53;5036846;28;20021;-86
2022/05/20 06:41:06;;;;;;;7.68;1.85;;;;;;;17.78;42.75;100578.75;5038094;28;20032;-87
2022/05/20 06:43:32;;;;;;;2.63;1.75;;;;;;;18.44;42.54;100655.66;5051915;28;20028;-86
2022/05/20 06:46:00;;;;;;;3.20;1.70;;;;;;;18.12;42.54;100600.25;5053400;28;20070;-88
2022/05/20 06:48:41;;;;;;;4.00;1.80;;;;;;;18.36;41.55;100624.59;5051417;28;20028;-88
2022/05/20 06:51:08;;;;;;;3.13;1.60;;;;;;;18.61;41.65;100656.13;5036486;28;20025;-88
2022/05/20 06:53:33;;;;;;;3.30;1.77;;;;;;;18.40;41.72;100617.81;5048027;28;20044;-88
2022/05/20 06:55:59;;;;;;;2.38;1.92;;;;;;;18.72;41.47;100661.75;5041170;28;20037;-88
2022/05/20 06:58:25;;;;;;;1.80;1.70;;;;;;;18.22;41.35;100561.44;5037198;28;20491;-87
2022/05/20 07:00:50;;;;;;;1.95;1.65;;;;;;;18.19;41.07;100550.31;5039344;28;20033;-88
2022/05/20 07:03:19;;;;;;;3.38;2.25;;;;;;;18.39;40.82;100578.72;5049005;28;20121;-88
2022/05/20 07:05:45;;;;;;;7.43;3.42;;;;;;;18.82;40.61;100617.72;5051741;28;20016;-88
2022/05/20 07:08:10;;;;;;;3.22;1.90;;;;;;;18.43;40.15;100571.94;5074920;28;20024;-88
2022/05/20 07:10:36;;;;;;;4.55;2.30;;;;;;;18.52;40.27;100556.53;5070486;28;20546;-89
2022/05/20 07:13:01;;;;;;;7.10;2.85;;;;;;;18.57;40.24;100561.25;5054689;28;20009;-88
2022/05/20 07:15:27;;;;;;;4.10;3.38;;;;;;;18.73;39.13;100585.81;5044011;28;20029;-88
2022/05/20 07:17:52;;;;;;;4.85;2.38;;;;;;;19.19;38.72;100626.94;5043692;28;20035;-88
2022/05/20 07:20:18;;;;;;;3.05;1.98;;;;;;;18.86;38.46;100558.22;5030980;28;20032;-87
2022/05/20 07:22:44;;;;;;;2.20;1.60;;;;;;;19.55;38.15;100654.16;5050592;28;20028;-88
2022/05/20 07:25:10;;;;;;;3.70;2.00;;;;;;;19.03;38.07;100551.41;5051923;28;20075;-87
2022/05/20 07:27:35;;;;;;;4.32;1.85;;;;;;;18.81;37.68;100499.16;5054636;28;20021;-88
2022/05/20 07:30:00;;;;;;;3.97;2.20;;;;;;;19.22;37.30;100583.69;5071244;28;20020;-88
2022/05/20 07:32:26;;;;;;;3.10;2.22;;;;;;;19.00;37.53;100533.09;5048201;28;20033;-88
2022/05/20 07:34:51;;;;;;;4.72;3.03;;;;;;;19.15;37.17;100573.00;5046746;28;20066;-89
2022/05/20 07:37:17;;;;;;;5.18;2.60;;;;;;;19.56;37.30;100577.28;5056184;28;20063;-86
2022/05/20 07:39:43;;;;;;;5.03;2.30;;;;;;;19.56;37.60;100593.34;5051080;28;20127;-87
2022/05/20 07:42:08;;;;;;;8.13;5.05;;;;;;;19.39;37.02;100539.41;5045403;28;20455;-87
2022/05/20 07:44:36;;;;;;;17.83;9.88;;;;;;;19.91;36.99;100601.88;5046908;28;20028;-88
2022/05/20 07:47:02;;;;;;;3.67;2.10;;;;;;;19.80;36.90;100562.34;5050193;28;20059;-87
2022/05/20 07:49:28;;;;;;;3.47;2.00;;;;;;;19.79;36.63;100564.19;5041879;28;20163;-88
2022/05/20 07:51:57;;;;;;;3.63;2.28;;;;;;;18.53;36.66;100354.91;5040663;28;20066;-89
2022/05/20 07:54:26;;;;;;;9.15;6.45;;;;;;;19.81;37.14;100542.53;5031939;28;20025;-88
2022/05/20 07:57:00;;;;;;;24.25;13.27;;;;;;;20.27;37.32;100598.63;5030754;28;20108;-87
2022/05/20 07:59:30;;;;;;;5.63;3.60;;;;;;;20.63;36.23;100646.28;5047584;28;20067;-88
2022/05/20 08:01:57;;;;;;;4.05;2.15;;;;;;;20.26;35.80;100565.59;5065998;28;20089;-87
2022/05/20 08:07:15;;;;;;;4.75;2.03;;;;;;;20.84;35.23;100637.91;5031777;28;20048;-85
2022/05/20 08:09:41;;;;;;;3.33;2.33;;;;;;;21.08;34.98;100646.19;5045414;28;20025;-87
2022/05/20 08:12:07;;;;;;;3.08;1.88;;;;;;;20.67;34.96;100576.91;5049836;28;20112;-86
2022/05/20 08:14:33;;;;;;;8.27;3.97;;;;;;;20.86;34.85;100603.59;5045621;28;20032;-87
2022/05/20 08:17:00;;;;;;;4.30;1.60;;;;;;;19.32;34.29;100329.69;5036668;28;20024;-86
2022/05/20 08:19:26;;;;;;;2.28;1.38;;;;;;;21.36;34.34;100625.06;5037204;28;20033;-86
2022/05/20 08:21:51;;;;;;;2.78;1.65;;;;;;;20.90;33.74;100543.06;5043550;28;20081;-85
2022/05/20 08:24:17;;;;;;;7.10;2.30;;;;;;;21.02;33.54;100550.38;5050808;28;20021;-85
2022/05/20 08:26:43;;;;;;;3.35;2.30;;;;;;;21.00;33.96;100522.94;5049999;28;20030;-88
2022/05/20 08:29:11;;;;;;;2.88;2.08;;;;;;;21.47;34.07;100584.03;5051360;28;20029;-87
2022/05/20 08:31:37;;;;;;;4.57;2.10;;;;;;;21.39;34.08;100535.16;5061820;28;20082;-86
2022/05/20 08:34:02;;;;;;;3.40;2.45;;;;;;;21.47;33.67;100522.22;5043443;28;20103;-88
2022/05/20 08:36:29;;;;;;;2.65;2.00;;;;;;;21.54;33.42;100503.31;5032141;28;20116;-88
2022/05/20 08:38:55;;;;;;;3.38;2.28;;;;;;;22.26;33.16;100594.88;5029398;28;20029;-88
2022/05/20 08:41:36;;;;;;;2.83;2.05;;;;;;;22.10;32.20;100556.81;5044174;28;20021;-88
2022/05/20 08:44:02;;;;;;;4.80;2.20;;;;;;;22.42;31.97;100596.94;5052591;28;20395;-87
2022/05/20 08:46:28;;;;;;;2.90;2.60;;;;;;;22.48;31.10;100585.25;5050569;28;20032;-88
2022/05/20 08:48:56;;;;;;;3.13;2.42;;;;;;;22.75;30.71;100602.63;5049328;28;20021;-88
2022/05/20 08:51:24;;;;;;;4.07;1.90;;;;;;;22.52;30.33;100548.75;5049224;28;21597;-88
2022/05/20 08:53:50;;;;;;;1.83;1.33;;;;;;;22.48;30.21;100539.50;5033936;28;20029;-87
2022/05/20 08:56:22;;;;;;;2.95;2.58;;;;;;;23.05;30.00;100593.69;5050325;28;20029;-87
2022/05/20 08:59:01;;;;;;;3.50;2.65;;;;;;;22.48;29.56;100504.50;5047370;28;20025;-87
2022/05/20 09:01:30;;;;;;;3.40;1.60;;;;;;;23.36;29.27;100592.50;5053564;28;20477;-88
2022/05/20 09:03:55;;;;;;;5.93;3.08;;;;;;;23.46;29.31;100577.34;5036707;28;20457;-84
2022/05/20 09:06:21;;;;;;;3.00;2.70;;;;;;;23.73;29.15;100588.44;5059014;28;20028;-85
2022/05/20 09:09:12;;;;;;;5.47;1.50;;;;;;;23.97;28.33;100583.00;5049096;28;20121;-85
2022/05/20 09:11:40;;;;;;;3.75;2.10;;;;;;;24.07;29.35;100575.91;5045248;28;20159;-86
2022/05/20 09:17:13;;;;;;;3.25;2.17;;;;;;;24.18;27.00;100532.94;5050448;28;20086;-87
2022/05/20 09:19:54;;;;;;;1.73;1.55;;;;;;;24.43;28.13;100555.00;5051952;28;20104;-87
2022/05/20 09:22:26;;;;;;;2.75;1.92;;;;;;;24.64;28.09;100567.78;5041410;28;20025;-87
2022/05/20 09:24:51;;;;;;;2.25;1.55;;;;;;;24.87;27.32;100565.97;5048375;28;20417;-87
2022/05/20 09:27:25;;;;;;;2.08;1.20;;;;;;;25.11;26.75;100562.03;5050219;28;20035;-87
2022/05/20 09:29:55;;;;;;;2.53;1.60;;;;;;;25.29;27.03;100548.25;5049762;28;20021;-87
2022/05/20 09:32:26;;;;;;;2.93;1.50;;;;;;;25.47;27.07;100555.25;5034019;28;20057;-87
2022/05/20 09:35:02;;;;;;;3.60;2.28;;;;;;;25.68;27.07;100552.81;5034074;28;20076;-86
2022/05/20 09:37:30;;;;;;;6.82;3.92;;;;;;;25.65;26.75;100497.31;5032472;28;20091;-86
2022/05/20 09:39:56;;;;;;;3.67;2.28;;;;;;;26.06;25.95;100546.50;5031972;28;20040;-85
2022/05/20 09:42:28;;;;;;;2.70;2.03;;;;;;;26.23;25.62;100545.31;5036951;28;20151;-85
2022/05/20 09:44:57;;;;;;;2.67;2.47;;;;;;;26.31;25.88;100506.09;5032012;28;20466;-86
2022/05/20 09:47:50;;;;;;;2.25;1.80;;;;;;;26.51;25.51;100494.66;5033224;28;20357;-85
2022/05/20 09:50:24;;;;;;;2.03;1.75;;;;;;;26.90;23.83;100525.81;5033284;28;20029;-86
2022/05/20 09:52:58;;;;;;;4.97;2.00;;;;;;;26.63;24.41;100483.63;5032942;28;20060;-85
2022/05/20 09:55:35;;;;;;;1.70;1.52;;;;;;;27.12;24.03;100524.88;5049221;28;20632;-85
2022/05/20 09:58:18;;;;;;;2.83;1.42;;;;;;;27.33;23.58;100517.66;5044918;28;20033;-87
2022/05/20 10:00:50;;;;;;;3.00;2.70;;;;;;;27.11;23.64;100461.72;5052654;28;20021;-87
2022/05/20 10:03:29;;;;;;;3.88;1.48;;;;;;;27.16;22.04;100439.22;5052999;28;20382;-87
2022/05/20 10:06:09;;;;;;;6.18;3.20;;;;;;;27.34;23.56;100460.44;5051266;28;20025;-87
2022/05/20 10:09:26;;;;;;;3.07;1.87;;;;;;;27.85;22.61;100513.00;5038581;28;20025;-87
2022/05/20 10:12:17;;;;;;;4.85;2.78;;;;;;;27.97;23.10;100511.94;5026215;28;20099;-87
2022/05/20 10:15:06;;;;;;;6.03;4.63;;;;;;;28.08;23.59;100503.53;5049167;28;20380;-87
2022/05/20 10:17:43;;;;;;;5.82;4.00;;;;;;;28.16;23.39;100496.75;5037908;28;20033;-87
2022/05/20 10:20:24;;;;;;;5.10;2.15;;;;;;;28.57;22.06;100496.78;5039332;28;20025;-87
2022/05/20 10:22:56;;;;;;;4.25;2.30;;;;;;;28.76;22.63;100503.25;5035719;28;20037;-87
2022/05/20 10:25:41;;;;;;;1.92;1.73;;;;;;;28.43;21.61;100425.88;5036187;28;20108;-86
2022/05/20 10:34:08;;;;;;;4.07;2.85;;;;;;;28.90;22.07;100477.16;5033116;28;20029;-86
2022/05/20 10:37:01;;;;;;;3.70;2.25;;;;;;;28.66;21.58;100402.72;5038499;28;20025;-86
2022/05/20 10:40:06;;;;;;;3.97;2.17;;;;;;;29.33;21.37;100472.94;5036218;28;20106;-85
2022/05/20 10:42:48;;;;;;;2.92;1.65;;;;;;;29.42;20.96;100473.97;5052166;28;20110;-87
2022/05/20 10:48:36;;;;;;;;;;;;;;;29.46;21.27;100468.81;5051843;28;20044;-86
2022/05/20 10:51:22;;;;;;;2.97;1.95;;;;;;;29.58;21.77;100473.91;5036098;28;20309;-87
2022/05/20 10:54:24;;;;;;;3.97;1.90;;;;;;;29.65;20.72;100458.91;5030686;28;20041;-87
2022/05/20 10:57:06;;;;;;;3.53;1.60;;;;;;;29.71;21.06;100455.06;5042217;28;20037;-86
2022/05/20 10:59:46;;;;;;;3.72;2.85;;;;;;;29.57;21.04;100413.22;5050495;28;20036;-86
2022/05/20 11:02:38;;;;;;;3.25;1.70;;;;;;;29.88;20.45;100442.97;5049577;28;20043;-86
2022/05/20 11:05:41;;;;;;;3.60;2.50;;;;;;;29.92;20.41;100436.69;5032061;28;20422;-86
2022/05/20 11:08:25;;;;;;;6.70;3.70;;;;;;;30.09;20.09;100438.22;5030707;28;20033;-86
2022/05/20 11:11:12;;;;;;;7.72;5.68;;;;;;;30.30;20.22;100431.47;5032245;28;20025;-86
2022/05/20 11:13:58;;;;;;;6.25;4.47;;;;;;;30.01;20.35;100379.69;5039418;28;20115;-84
2022/05/20 11:16:41;;;;;;;5.47;4.72;;;;;;;30.40;20.10;100433.28;5042319;28;20029;-87
2022/05/20 11:19:07;;;;;;;3.15;1.70;;;;;;;30.62;19.73;100429.03;5031643;28;20048;-85
2022/05/20 11:21:59;;;;;;;4.43;3.50;;;;;;;30.62;19.43;100426.28;5032954;28;20112;-83
2022/05/20 11:24:37;;;;;;;2.92;2.20;;;;;;;30.85;19.86;100415.66;5070899;28;20029;-85
2022/05/20 11:27:20;;;;;;;2.92;2.50;;;;;;;30.95;20.18;100421.81;5079809;28;20438;-85
2022/05/20 11:29:59;;;;;;;5.10;3.53;;;;;;;31.15;19.21;100422.69;5042885;28;20033;-84
2022/05/20 11:32:46;;;;;;;3.47;2.70;;;;;;;31.12;19.33;100412.31;5040488;28;20022;-84
2022/05/20 11:35:23;;;;;;;3.25;2.15;;;;;;;31.13;19.00;100392.94;5049266;28;20033;-83
2022/05/20 11:37:58;;;;;;;2.63;1.40;;;;;;;31.34;18.63;100409.09;5056772;28;20025;-84
2022/05/20 11:40:45;;;;;;;3.40;1.70;;;;;;;31.50;18.48;100411.28;5058187;28;20070;-84
2022/05/20 11:43:30;;;;;;;2.67;1.20;;;;;;;31.37;18.29;100365.63;5053655;28;20119;-85
2022/05/20 11:46:16;;;;;;;2.42;1.25;;;;;;;31.72;18.14;100409.91;5045052;28;20040;-84
2022/05/20 11:48:42;;;;;;;2.13;1.40;;;;;;;31.76;18.77;100406.28;5033355;28;20029;-84
2022/05/20 11:51:30;;;;;;;1.40;1.10;;;;;;;31.78;18.22;100392.31;5030348;28;20091;-85
2022/05/20 11:54:15;;;;;;;2.15;1.45;;;;;;;31.78;18.35;100392.31;5024618;28;20037;-84
2022/05/20 11:57:18;;;;;;;2.05;1.63;;;;;;;31.71;17.37;100392.69;5029797;28;20467;-85
2022/05/20 12:00:08;;;;;;;4.40;1.40;;;;;;;31.26;17.71;100345.06;5031322;28;20017;-84
2022/05/20 12:02:45;;;;;;;2.60;1.20;;;;;;;31.61;18.17;100374.53;5045883;28;20501;-84
2022/05/20 12:05:14;;;;;;;1.98;1.38;;;;;;;31.81;18.06;100373.41;5048866;28;20044;-84
2022/05/20 12:07:39;;;;;;;2.40;1.48;;;;;;;31.84;18.09;100364.63;5066243;28;20094;-84
2022/05/20 12:10:37;;;;;;;1.85;1.50;;;;;;;32.04;17.55;100360.75;5049370;28;20401;-84
2022/05/20 12:13:21;;;;;;;1.42;1.10;;;;;;;32.08;15.94;100331.72;5042660;28;20040;-84
2022/05/20 12:15:50;;;;;;;3.63;1.63;;;;;;;31.56;17.85;100246.31;5035386;28;20026;-84
2022/05/20 12:24:15;;;;;;;5.15;3.13;;;;;;;32.12;18.13;100357.31;5036812;28;20088;-85
2022/05/20 12:26:53;;;;;;;5.97;3.97;;;;;;;32.03;17.67;100329.09;5037864;28;20029;-85
2022/05/20 12:29:42;;;;;;;3.80;1.60;;;;;;;32.18;17.87;100337.00;5040169;28;20078;-83
2022/05/20 12:32:27;;;;;;;8.40;2.03;;;;;;;32.24;17.92;100348.66;5037454;28;20041;-84
2022/05/20 12:35:03;;;;;;;3.67;1.33;;;;;;;32.33;18.13;100344.13;5036707;28;20034;-84
2022/05/20 12:37:44;;;;;;;4.30;1.50;;;;;;;32.38;17.51;100335.81;5041774;28;20409;-85
2022/05/20 12:40:17;;;;;;;3.17;1.65;;;;;;;32.38;17.77;100335.81;5036238;28;20041;-84
2022/05/20 12:42:56;;;;;;;2.97;1.63;;;;;;;32.28;18.41;100314.16;5031984;28;20033;-85
2022/05/20 12:45:23;;;;;;;5.28;1.50;;;;;;;32.12;18.05;100249.97;5050104;28;20116;-84
2022/05/20 12:47:48;;;;;;;4.53;1.83;;;;;;;32.42;18.22;100331.34;5048544;28;20074;-84